sensor_id;sensor_type;location;lat;lon;timestamp;temperature;humidity
20732;DHT22;10527;52.124;5.196;2023-09-12T00:02:15;22.00;99.90
20732;DHT22;10527;52.124;5.196;2023-09-12T00:04:42;22.00;99.90
20732;DHT22;10527;52.124;5.196;2023-09-12T00:07:10;22.00;99.90
20732;DHT22;10527;52.124;5.196;2023-09-12T00:09:37;22.00;99.90
20732;DHT22;10527;52.124;5.196;2023-09-12T00:12:05;22.00;99.90
20732;DHT22;10527;52.124;5.196;2023-09-12T00:14:32;21.90;99.90
20732;DHT22;10527;52.124;5.196;2023-09-12T00:16:58;21.90;99.90
20732;DHT22;10527;52.124;5.196;2023-09-12T00:19:25;21.90;99.90
20732;DHT22;10527;52.124;5.196;2023-09-12T00:21:58;21.90;99.90
20732;DHT22;10527;52.124;5.196;2023-09-12T00:24:26;21.90;99.90
20732;DHT22;10527;52.124;5.196;2023-09-12T00:26:53;21.90;99.90
20732;DHT22;10527;52.124;5.196;2023-09-12T00:29:22;21.80;99.90
20732;DHT22;10527;52.124;5.196;2023-09-12T00:31:49;21.80;99.90
20732;DHT22;10527;52.124;5.196;2023-09-12T00:34:16;21.80;99.90
20732;DHT22;10527;52.124;5.196;2023-09-12T00:36:44;21.80;99.90
20732;DHT22;10527;52.124;5.196;2023-09-12T00:39:11;21.80;99.90
20732;DHT22;10527;52.124;5.196;2023-09-12T00:41:38;21.80;99.90
20732;DHT22;10527;52.124;5.196;2023-09-12T00:44:05;21.70;99.90
20732;DHT22;10527;52.124;5.196;2023-09-12T00:46:32;21.70;99.90
20732;DHT22;10527;52.124;5.196;2023-09-12T00:49:02;21.70;99.90
20732;DHT22;10527;52.124;5.196;2023-09-12T00:51:32;21.70;99.90
20732;DHT22;10527;52.124;5.196;2023-09-12T00:54:00;21.60;99.90
20732;DHT22;10527;52.124;5.196;2023-09-12T00:56:28;21.60;99.90
20732;DHT22;10527;52.124;5.196;2023-09-12T00:58:55;21.50;99.90
20732;DHT22;10527;52.124;5.196;2023-09-12T01:01:23;21.50;99.90
20732;DHT22;10527;52.124;5.196;2023-09-12T01:03:50;21.50;99.90
20732;DHT22;10527;52.124;5.196;2023-09-12T01:06:23;21.50;99.90
20732;DHT22;10527;52.124;5.196;2023-09-12T01:08:55;21.50;99.90
20732;DHT22;10527;52.124;5.196;2023-09-12T01:11:23;21.40;99.90
20732;DHT22;10527;52.124;5.196;2023-09-12T01:13:50;21.40;99.90
20732;DHT22;10527;52.124;5.196;2023-09-12T01:16:20;21.40;99.90
20732;DHT22;10527;52.124;5.196;2023-09-12T01:18:47;21.40;99.90
20732;DHT22;10527;52.124;5.196;2023-09-12T01:21:36;21.30;99.90
20732;DHT22;10527;52.124;5.196;2023-09-12T01:24:29;21.30;99.90
20732;DHT22;10527;52.124;5.196;2023-09-12T01:27:28;21.30;99.90
20732;DHT22;10527;52.124;5.196;2023-09-12T01:29:57;21.20;99.90
20732;DHT22;10527;52.124;5.196;2023-09-12T01:32:32;21.20;99.90
20732;DHT22;10527;52.124;5.196;2023-09-12T01:35:00;21.20;99.90
20732;DHT22;10527;52.124;5.196;2023-09-12T01:37:30;21.10;99.90
20732;DHT22;10527;52.124;5.196;2023-09-12T01:39:58;21.10;99.90
20732;DHT22;10527;52.124;5.196;2023-09-12T01:42:29;21.10;99.90
20732;DHT22;10527;52.124;5.196;2023-09-12T01:45:03;21.10;99.90
20732;DHT22;10527;52.124;5.196;2023-09-12T01:47:31;21.10;99.90
20732;DHT22;10527;52.124;5.196;2023-09-12T01:50:02;21.10;99.90
20732;DHT22;10527;52.124;5.196;2023-09-12T01:52:32;21.10;99.90
20732;DHT22;10527;52.124;5.196;2023-09-12T01:54:59;21.10;99.90
20732;DHT22;10527;52.124;5.196;2023-09-12T01:57:27;21.10;99.90
20732;DHT22;10527;52.124;5.196;2023-09-12T01:59:54;21.00;99.90
20732;DHT22;10527;52.124;5.196;2023-09-12T02:02:21;21.00;99.90
20732;DHT22;10527;52.124;5.196;2023-09-12T02:05:20;21.00;99.90
20732;DHT22;10527;52.124;5.196;2023-09-12T02:07:49;21.10;99.90
20732;DHT22;10527;52.124;5.196;2023-09-12T02:10:16;21.10;99.90
20732;DHT22;10527;52.124;5.196;2023-09-12T02:12:43;21.00;99.90
20732;DHT22;10527;52.124;5.196;2023-09-12T02:15:10;20.90;99.90
20732;DHT22;10527;52.124;5.196;2023-09-12T02:17:38;21.00;99.90
20732;DHT22;10527;52.124;5.196;2023-09-12T02:20:08;21.00;99.90
20732;DHT22;10527;52.124;5.196;2023-09-12T02:22:36;21.00;99.90
20732;DHT22;10527;52.124;5.196;2023-09-12T02:25:06;21.00;99.90
20732;DHT22;10527;52.124;5.196;2023-09-12T02:27:35;21.00;99.90
20732;DHT22;10527;52.124;5.196;2023-09-12T02:30:02;21.00;99.90
20732;DHT22;10527;52.124;5.196;2023-09-12T02:32:30;20.90;99.90
20732;DHT22;10527;52.124;5.196;2023-09-12T02:34:57;20.90;99.90
20732;DHT22;10527;52.124;5.196;2023-09-12T02:37:24;20.90;99.90
20732;DHT22;10527;52.124;5.196;2023-09-12T02:39:51;20.80;99.90
20732;DHT22;10527;52.124;5.196;2023-09-12T02:42:18;20.80;99.90
20732;DHT22;10527;52.124;5.196;2023-09-12T02:44:45;20.90;99.90
20732;DHT22;10527;52.124;5.196;2023-09-12T02:47:11;20.90;99.90
20732;DHT22;10527;52.124;5.196;2023-09-12T02:49:38;20.80;99.90
20732;DHT22;10527;52.124;5.196;2023-09-12T02:52:05;20.80;99.90
20732;DHT22;10527;52.124;5.196;2023-09-12T02:54:32;20.80;99.90
20732;DHT22;10527;52.124;5.196;2023-09-12T02:56:59;20.80;99.90
20732;DHT22;10527;52.124;5.196;2023-09-12T02:59:26;20.70;99.90
20732;DHT22;10527;52.124;5.196;2023-09-12T03:01:53;20.60;99.90
20732;DHT22;10527;52.124;5.196;2023-09-12T03:04:19;20.60;99.90
20732;DHT22;10527;52.124;5.196;2023-09-12T03:06:46;20.70;99.90
20732;DHT22;10527;52.124;5.196;2023-09-12T03:09:14;20.70;99.90
20732;DHT22;10527;52.124;5.196;2023-09-12T03:11:43;20.70;99.90
20732;DHT22;10527;52.124;5.196;2023-09-12T03:14:11;20.70;99.90
20732;DHT22;10527;52.124;5.196;2023-09-12T03:16:37;20.60;99.90
20732;DHT22;10527;52.124;5.196;2023-09-12T03:19:05;20.70;99.90
20732;DHT22;10527;52.124;5.196;2023-09-12T03:21:32;20.70;99.90
20732;DHT22;10527;52.124;5.196;2023-09-12T03:23:59;20.70;99.90
20732;DHT22;10527;52.124;5.196;2023-09-12T03:26:26;20.70;99.90
20732;DHT22;10527;52.124;5.196;2023-09-12T03:28:53;20.70;99.90
20732;DHT22;10527;52.124;5.196;2023-09-12T03:31:20;20.60;99.90
20732;DHT22;10527;52.124;5.196;2023-09-12T03:33:47;20.60;99.90
20732;DHT22;10527;52.124;5.196;2023-09-12T03:36:17;20.60;99.90
20732;DHT22;10527;52.124;5.196;2023-09-12T03:38:44;20.70;99.90
20732;DHT22;10527;52.124;5.196;2023-09-12T03:41:11;20.70;99.90
20732;DHT22;10527;52.124;5.196;2023-09-12T03:43:38;20.70;99.90
20732;DHT22;10527;52.124;5.196;2023-09-12T03:46:06;20.60;99.90
20732;DHT22;10527;52.124;5.196;2023-09-12T03:48:34;20.70;99.90
20732;DHT22;10527;52.124;5.196;2023-09-12T03:51:05;20.70;99.90
20732;DHT22;10527;52.124;5.196;2023-09-12T03:53:32;20.60;99.90
20732;DHT22;10527;52.124;5.196;2023-09-12T03:56:01;20.60;99.90
20732;DHT22;10527;52.124;5.196;2023-09-12T03:58:31;20.70;99.90
20732;DHT22;10527;52.124;5.196;2023-09-12T04:01:01;20.60;99.90
20732;DHT22;10527;52.124;5.196;2023-09-12T04:03:31;20.70;99.90
20732;DHT22;10527;52.124;5.196;2023-09-12T04:06:01;20.70;99.90
20732;DHT22;10527;52.124;5.196;2023-09-12T04:08:30;20.70;99.90
20732;DHT22;10527;52.124;5.196;2023-09-12T04:10:58;20.70;99.90
20732;DHT22;10527;52.124;5.196;2023-09-12T04:13:25;20.70;99.90
20732;DHT22;10527;52.124;5.196;2023-09-12T04:15:52;20.70;99.90
20732;DHT22;10527;52.124;5.196;2023-09-12T04:18:19;20.70;99.90
20732;DHT22;10527;52.124;5.196;2023-09-12T04:20:48;20.60;99.90
20732;DHT22;10527;52.124;5.196;2023-09-12T04:23:16;20.70;99.90
20732;DHT22;10527;52.124;5.196;2023-09-12T04:25:43;20.60;99.90
20732;DHT22;10527;52.124;5.196;2023-09-12T04:28:12;20.60;99.90
20732;DHT22;10527;52.124;5.196;2023-09-12T04:30:39;20.60;99.90
20732;DHT22;10527;52.124;5.196;2023-09-12T04:33:09;20.60;99.90
20732;DHT22;10527;52.124;5.196;2023-09-12T04:35:36;20.50;99.90
20732;DHT22;10527;52.124;5.196;2023-09-12T04:38:03;20.60;99.90
20732;DHT22;10527;52.124;5.196;2023-09-12T04:40:30;20.50;99.90
20732;DHT22;10527;52.124;5.196;2023-09-12T04:42:57;20.60;99.90
20732;DHT22;10527;52.124;5.196;2023-09-12T04:45:24;20.60;99.90
20732;DHT22;10527;52.124;5.196;2023-09-12T04:47:54;20.50;99.90
20732;DHT22;10527;52.124;5.196;2023-09-12T04:50:21;20.60;99.90
20732;DHT22;10527;52.124;5.196;2023-09-12T04:52:48;20.40;99.90
20732;DHT22;10527;52.124;5.196;2023-09-12T04:55:14;20.40;99.90
20732;DHT22;10527;52.124;5.196;2023-09-12T04:57:41;20.40;99.90
20732;DHT22;10527;52.124;5.196;2023-09-12T05:00:09;20.30;99.90
20732;DHT22;10527;52.124;5.196;2023-09-12T05:02:37;20.40;99.90
20732;DHT22;10527;52.124;5.196;2023-09-12T05:05:06;20.40;99.90
20732;DHT22;10527;52.124;5.196;2023-09-12T05:07:33;20.40;99.90
20732;DHT22;10527;52.124;5.196;2023-09-12T05:10:00;20.40;99.90
20732;DHT22;10527;52.124;5.196;2023-09-12T05:12:27;20.40;99.90
20732;DHT22;10527;52.124;5.196;2023-09-12T05:14:54;20.40;99.90
20732;DHT22;10527;52.124;5.196;2023-09-12T05:17:21;20.30;99.90
20732;DHT22;10527;52.124;5.196;2023-09-12T05:19:48;20.30;99.90
20732;DHT22;10527;52.124;5.196;2023-09-12T05:22:15;20.40;99.90
20732;DHT22;10527;52.124;5.196;2023-09-12T05:24:49;20.40;99.90
20732;DHT22;10527;52.124;5.196;2023-09-12T05:27:16;20.40;99.90
20732;DHT22;10527;52.124;5.196;2023-09-12T05:29:43;20.40;99.90
20732;DHT22;10527;52.124;5.196;2023-09-12T05:32:10;20.40;99.90
20732;DHT22;10527;52.124;5.196;2023-09-12T05:34:37;20.40;99.90
20732;DHT22;10527;52.124;5.196;2023-09-12T05:37:04;20.30;99.90
20732;DHT22;10527;52.124;5.196;2023-09-12T05:39:31;20.30;99.90
20732;DHT22;10527;52.124;5.196;2023-09-12T05:41:58;20.40;99.90
20732;DHT22;10527;52.124;5.196;2023-09-12T05:44:25;20.30;99.90
20732;DHT22;10527;52.124;5.196;2023-09-12T05:46:52;20.30;99.90
20732;DHT22;10527;52.124;5.196;2023-09-12T05:49:18;20.30;99.90
20732;DHT22;10527;52.124;5.196;2023-09-12T05:51:46;20.30;99.90
20732;DHT22;10527;52.124;5.196;2023-09-12T05:54:13;20.20;99.90
20732;DHT22;10527;52.124;5.196;2023-09-12T05:56:41;20.20;99.90
20732;DHT22;10527;52.124;5.196;2023-09-12T05:59:08;20.30;99.90
20732;DHT22;10527;52.124;5.196;2023-09-12T06:01:35;20.30;99.90
20732;DHT22;10527;52.124;5.196;2023-09-12T06:04:03;20.40;99.90
20732;DHT22;10527;52.124;5.196;2023-09-12T06:06:31;20.40;99.90
20732;DHT22;10527;52.124;5.196;2023-09-12T06:08:58;20.40;99.90
20732;DHT22;10527;52.124;5.196;2023-09-12T06:11:25;20.40;99.90
20732;DHT22;10527;52.124;5.196;2023-09-12T06:13:52;20.40;99.90
20732;DHT22;10527;52.124;5.196;2023-09-12T06:16:19;20.50;99.90
20732;DHT22;10527;52.124;5.196;2023-09-12T06:18:46;20.50;99.90
20732;DHT22;10527;52.124;5.196;2023-09-12T06:21:16;20.50;99.90
20732;DHT22;10527;52.124;5.196;2023-09-12T06:23:44;20.60;99.90
20732;DHT22;10527;52.124;5.196;2023-09-12T06:26:11;20.70;99.90
20732;DHT22;10527;52.124;5.196;2023-09-12T06:28:37;20.70;99.90
20732;DHT22;10527;52.124;5.196;2023-09-12T06:31:08;20.70;99.90
20732;DHT22;10527;52.124;5.196;2023-09-12T06:33:37;20.80;99.90
20732;DHT22;10527;52.124;5.196;2023-09-12T06:36:05;20.80;99.90
20732;DHT22;10527;52.124;5.196;2023-09-12T06:38:32;20.70;99.90
20732;DHT22;10527;52.124;5.196;2023-09-12T06:40:59;20.70;99.90
20732;DHT22;10527;52.124;5.196;2023-09-12T06:43:26;20.70;99.90
20732;DHT22;10527;52.124;5.196;2023-09-12T06:45:53;20.80;99.90
20732;DHT22;10527;52.124;5.196;2023-09-12T06:48:19;20.70;99.90
20732;DHT22;10527;52.124;5.196;2023-09-12T06:50:46;20.70;99.90
20732;DHT22;10527;52.124;5.196;2023-09-12T06:53:17;20.70;99.90
20732;DHT22;10527;52.124;5.196;2023-09-12T06:55:44;20.80;99.90
20732;DHT22;10527;52.124;5.196;2023-09-12T06:58:12;20.80;99.90
20732;DHT22;10527;52.124;5.196;2023-09-12T07:00:39;20.80;99.90
20732;DHT22;10527;52.124;5.196;2023-09-12T07:03:06;20.80;99.90
20732;DHT22;10527;52.124;5.196;2023-09-12T07:05:36;20.80;99.90
20732;DHT22;10527;52.124;5.196;2023-09-12T07:08:05;20.80;99.90
20732;DHT22;10527;52.124;5.196;2023-09-12T07:10:32;20.90;99.90
20732;DHT22;10527;52.124;5.196;2023-09-12T07:12:59;20.80;99.90
20732;DHT22;10527;52.124;5.196;2023-09-12T07:15:26;20.90;99.90
20732;DHT22;10527;52.124;5.196;2023-09-12T07:17:53;20.90;99.90
20732;DHT22;10527;52.124;5.196;2023-09-12T07:20:20;20.90;99.90
20732;DHT22;10527;52.124;5.196;2023-09-12T07:22:47;20.80;99.90
20732;DHT22;10527;52.124;5.196;2023-09-12T07:25:14;20.70;99.90
20732;DHT22;10527;52.124;5.196;2023-09-12T07:27:41;20.70;99.90
20732;DHT22;10527;52.124;5.196;2023-09-12T07:30:08;20.70;99.90
20732;DHT22;10527;52.124;5.196;2023-09-12T07:32:36;20.80;99.90
20732;DHT22;10527;52.124;5.196;2023-09-12T07:35:04;20.90;99.90
20732;DHT22;10527;52.124;5.196;2023-09-12T07:37:31;21.00;99.90
20732;DHT22;10527;52.124;5.196;2023-09-12T07:40:01;21.20;99.90
20732;DHT22;10527;52.124;5.196;2023-09-12T07:42:28;21.20;99.90
20732;DHT22;10527;52.124;5.196;2023-09-12T07:44:56;21.20;99.90
20732;DHT22;10527;52.124;5.196;2023-09-12T07:47:22;21.20;99.90
20732;DHT22;10527;52.124;5.196;2023-09-12T07:49:53;21.30;99.90
20732;DHT22;10527;52.124;5.196;2023-09-12T07:52:20;21.30;99.90
20732;DHT22;10527;52.124;5.196;2023-09-12T07:54:49;21.40;99.90
20732;DHT22;10527;52.124;5.196;2023-09-12T07:57:17;21.40;99.90
20732;DHT22;10527;52.124;5.196;2023-09-12T07:59:44;21.30;99.90
20732;DHT22;10527;52.124;5.196;2023-09-12T08:02:11;21.20;99.90
20732;DHT22;10527;52.124;5.196;2023-09-12T08:04:39;21.30;99.90
20732;DHT22;10527;52.124;5.196;2023-09-12T08:07:06;21.20;99.90
20732;DHT22;10527;52.124;5.196;2023-09-12T08:09:52;21.10;99.90
20732;DHT22;10527;52.124;5.196;2023-09-12T08:12:25;21.20;99.90
20732;DHT22;10527;52.124;5.196;2023-09-12T08:14:54;21.30;99.90
20732;DHT22;10527;52.124;5.196;2023-09-12T08:17:23;21.30;99.90
20732;DHT22;10527;52.124;5.196;2023-09-12T08:19:50;21.40;99.90
20732;DHT22;10527;52.124;5.196;2023-09-12T08:22:19;21.40;99.90
20732;DHT22;10527;52.124;5.196;2023-09-12T08:24:46;21.40;99.90
20732;DHT22;10527;52.124;5.196;2023-09-12T08:27:14;21.30;99.90
20732;DHT22;10527;52.124;5.196;2023-09-12T08:29:41;21.40;99.90
20732;DHT22;10527;52.124;5.196;2023-09-12T08:32:10;21.40;99.90
20732;DHT22;10527;52.124;5.196;2023-09-12T08:34:37;21.50;99.90
20732;DHT22;10527;52.124;5.196;2023-09-12T08:37:04;21.50;99.90
20732;DHT22;10527;52.124;5.196;2023-09-12T08:39:42;21.50;99.90
20732;DHT22;10527;52.124;5.196;2023-09-12T08:42:13;21.60;99.90
20732;DHT22;10527;52.124;5.196;2023-09-12T08:44:42;21.70;99.90
20732;DHT22;10527;52.124;5.196;2023-09-12T08:47:11;21.70;99.90
20732;DHT22;10527;52.124;5.196;2023-09-12T08:49:39;21.60;99.90
20732;DHT22;10527;52.124;5.196;2023-09-12T08:52:08;21.70;99.90
20732;DHT22;10527;52.124;5.196;2023-09-12T08:54:35;21.70;99.90
20732;DHT22;10527;52.124;5.196;2023-09-12T08:57:03;21.80;99.90
20732;DHT22;10527;52.124;5.196;2023-09-12T08:59:33;22.00;99.90
20732;DHT22;10527;52.124;5.196;2023-09-12T09:02:01;22.00;99.90
20732;DHT22;10527;52.124;5.196;2023-09-12T09:04:30;22.10;99.90
20732;DHT22;10527;52.124;5.196;2023-09-12T09:06:59;22.30;99.90
20732;DHT22;10527;52.124;5.196;2023-09-12T09:09:30;22.30;99.90
20732;DHT22;10527;52.124;5.196;2023-09-12T09:11:58;22.30;99.90
20732;DHT22;10527;52.124;5.196;2023-09-12T09:14:24;22.30;99.90
20732;DHT22;10527;52.124;5.196;2023-09-12T09:16:51;22.30;99.90
20732;DHT22;10527;52.124;5.196;2023-09-12T09:19:18;22.30;99.90
20732;DHT22;10527;52.124;5.196;2023-09-12T09:21:47;22.10;99.90
20732;DHT22;10527;52.124;5.196;2023-09-12T09:24:17;22.10;99.90
20732;DHT22;10527;52.124;5.196;2023-09-12T09:26:49;22.10;99.90
20732;DHT22;10527;52.124;5.196;2023-09-12T09:29:19;22.20;99.90
20732;DHT22;10527;52.124;5.196;2023-09-12T09:31:49;22.20;99.90
20732;DHT22;10527;52.124;5.196;2023-09-12T09:34:21;22.40;99.90
20732;DHT22;10527;52.124;5.196;2023-09-12T09:36:52;22.30;99.90
20732;DHT22;10527;52.124;5.196;2023-09-12T09:39:22;22.30;99.90
20732;DHT22;10527;52.124;5.196;2023-09-12T09:41:56;22.60;99.90
20732;DHT22;10527;52.124;5.196;2023-09-12T09:44:25;23.00;99.90
20732;DHT22;10527;52.124;5.196;2023-09-12T09:47:01;23.00;99.90
20732;DHT22;10527;52.124;5.196;2023-09-12T09:49:33;23.10;99.90
20732;DHT22;10527;52.124;5.196;2023-09-12T09:52:04;23.20;99.90
20732;DHT22;10527;52.124;5.196;2023-09-12T09:54:35;23.20;99.90
20732;DHT22;10527;52.124;5.196;2023-09-12T09:57:05;23.20;99.90
20732;DHT22;10527;52.124;5.196;2023-09-12T09:59:33;23.50;99.90
20732;DHT22;10527;52.124;5.196;2023-09-12T10:02:00;23.70;99.90
20732;DHT22;10527;52.124;5.196;2023-09-12T10:04:29;23.90;99.90
20732;DHT22;10527;52.124;5.196;2023-09-12T10:07:11;24.00;99.90
20732;DHT22;10527;52.124;5.196;2023-09-12T10:09:43;24.20;99.90
20732;DHT22;10527;52.124;5.196;2023-09-12T10:12:11;24.10;99.90
20732;DHT22;10527;52.124;5.196;2023-09-12T10:14:40;24.00;99.90
20732;DHT22;10527;52.124;5.196;2023-09-12T10:17:13;23.80;99.90
20732;DHT22;10527;52.124;5.196;2023-09-12T10:19:56;24.00;99.90
20732;DHT22;10527;52.124;5.196;2023-09-12T10:22:36;23.90;99.90
20732;DHT22;10527;52.124;5.196;2023-09-12T10:25:07;23.70;99.90
20732;DHT22;10527;52.124;5.196;2023-09-12T10:27:35;23.30;99.90
20732;DHT22;10527;52.124;5.196;2023-09-12T10:30:02;23.10;99.90
20732;DHT22;10527;52.124;5.196;2023-09-12T10:32:32;23.00;99.90
20732;DHT22;10527;52.124;5.196;2023-09-12T10:35:02;22.90;99.90
20732;DHT22;10527;52.124;5.196;2023-09-12T10:37:32;22.80;99.90
20732;DHT22;10527;52.124;5.196;2023-09-12T10:40:05;22.90;99.90
20732;DHT22;10527;52.124;5.196;2023-09-12T10:42:35;23.00;99.90
20732;DHT22;10527;52.124;5.196;2023-09-12T10:45:07;22.80;99.90
20732;DHT22;10527;52.124;5.196;2023-09-12T10:47:36;22.80;99.90
20732;DHT22;10527;52.124;5.196;2023-09-12T10:50:06;22.90;99.90
20732;DHT22;10527;52.124;5.196;2023-09-12T10:52:34;23.10;99.90
20732;DHT22;10527;52.124;5.196;2023-09-12T10:55:07;23.30;99.90
20732;DHT22;10527;52.124;5.196;2023-09-12T10:57:34;23.50;99.90
20732;DHT22;10527;52.124;5.196;2023-09-12T11:02:34;24.20;99.90
20732;DHT22;10527;52.124;5.196;2023-09-12T11:08:00;24.60;99.90
20732;DHT22;10527;52.124;5.196;2023-09-12T11:10:28;24.90;99.90
20732;DHT22;10527;52.124;5.196;2023-09-12T11:12:58;25.10;99.90
20732;DHT22;10527;52.124;5.196;2023-09-12T11:15:27;25.10;99.90
20732;DHT22;10527;52.124;5.196;2023-09-12T11:18:03;25.30;99.90
20732;DHT22;10527;52.124;5.196;2023-09-12T11:20:52;25.40;99.90
20732;DHT22;10527;52.124;5.196;2023-09-12T11:23:31;25.50;99.90
20732;DHT22;10527;52.124;5.196;2023-09-12T11:26:08;25.60;99.90
20732;DHT22;10527;52.124;5.196;2023-09-12T11:28:38;25.70;99.90
20732;DHT22;10527;52.124;5.196;2023-09-12T11:31:06;25.80;99.90
20732;DHT22;10527;52.124;5.196;2023-09-12T11:33:33;25.80;99.90
20732;DHT22;10527;52.124;5.196;2023-09-12T11:36:02;25.80;99.90
20732;DHT22;10527;52.124;5.196;2023-09-12T11:38:31;25.90;99.90
20732;DHT22;10527;52.124;5.196;2023-09-12T11:40:59;25.70;99.90
20732;DHT22;10527;52.124;5.196;2023-09-12T11:43:27;25.60;99.90
20732;DHT22;10527;52.124;5.196;2023-09-12T11:45:56;25.50;99.90
20732;DHT22;10527;52.124;5.196;2023-09-12T11:48:24;25.60;99.90
20732;DHT22;10527;52.124;5.196;2023-09-12T11:50:53;25.50;99.90
20732;DHT22;10527;52.124;5.196;2023-09-12T11:53:27;25.30;99.90
20732;DHT22;10527;52.124;5.196;2023-09-12T11:55:59;25.30;99.90
20732;DHT22;10527;52.124;5.196;2023-09-12T11:58:27;25.40;99.90
20732;DHT22;10527;52.124;5.196;2023-09-12T12:00:56;25.20;99.90
20732;DHT22;10527;52.124;5.196;2023-09-12T12:03:30;24.90;99.90
20732;DHT22;10527;52.124;5.196;2023-09-12T12:05:57;24.80;99.90
20732;DHT22;10527;52.124;5.196;2023-09-12T12:08:25;24.80;99.90
20732;DHT22;10527;52.124;5.196;2023-09-12T12:10:58;24.80;99.90
20732;DHT22;10527;52.124;5.196;2023-09-12T12:13:26;24.90;99.90
20732;DHT22;10527;52.124;5.196;2023-09-12T12:15:55;24.80;99.90
20732;DHT22;10527;52.124;5.196;2023-09-12T12:18:24;24.80;99.90
20732;DHT22;10527;52.124;5.196;2023-09-12T12:20:51;24.80;99.90
20732;DHT22;10527;52.124;5.196;2023-09-12T12:23:18;24.90;99.90
20732;DHT22;10527;52.124;5.196;2023-09-12T12:25:45;25.10;99.90
20732;DHT22;10527;52.124;5.196;2023-09-12T12:28:16;25.20;99.90
20732;DHT22;10527;52.124;5.196;2023-09-12T12:30:43;25.30;99.90
20732;DHT22;10527;52.124;5.196;2023-09-12T12:33:10;25.60;99.90
20732;DHT22;10527;52.124;5.196;2023-09-12T12:36:04;25.70;99.90
20732;DHT22;10527;52.124;5.196;2023-09-12T12:38:37;25.70;99.90
20732;DHT22;10527;52.124;5.196;2023-09-12T12:41:27;25.70;99.90
20732;DHT22;10527;52.124;5.196;2023-09-12T12:44:09;25.80;99.90
20732;DHT22;10527;52.124;5.196;2023-09-12T12:46:49;25.50;99.90
20732;DHT22;10527;52.124;5.196;2023-09-12T12:49:20;25.40;99.90
20732;DHT22;10527;52.124;5.196;2023-09-12T12:51:48;25.00;99.90
20732;DHT22;10527;52.124;5.196;2023-09-12T12:54:15;24.90;99.90
20732;DHT22;10527;52.124;5.196;2023-09-12T12:56:44;24.90;99.90
20732;DHT22;10527;52.124;5.196;2023-09-12T12:59:12;24.80;99.90
20732;DHT22;10527;52.124;5.196;2023-09-12T13:01:39;24.80;99.90
20732;DHT22;10527;52.124;5.196;2023-09-12T13:04:07;24.70;99.90
20732;DHT22;10527;52.124;5.196;2023-09-12T13:06:35;24.60;99.90
20732;DHT22;10527;52.124;5.196;2023-09-12T13:09:04;24.20;99.90
20732;DHT22;10527;52.124;5.196;2023-09-12T13:11:33;24.00;99.90
20732;DHT22;10527;52.124;5.196;2023-09-12T13:14:02;23.70;99.90
20732;DHT22;10527;52.124;5.196;2023-09-12T13:16:35;23.30;99.90
20732;DHT22;10527;52.124;5.196;2023-09-12T13:19:03;23.10;99.90
20732;DHT22;10527;52.124;5.196;2023-09-12T13:21:30;22.90;99.90
20732;DHT22;10527;52.124;5.196;2023-09-12T13:23:59;23.00;99.90
20732;DHT22;10527;52.124;5.196;2023-09-12T13:26:28;22.90;99.90
20732;DHT22;10527;52.124;5.196;2023-09-12T13:28:55;23.00;99.90
20732;DHT22;10527;52.124;5.196;2023-09-12T13:31:23;23.10;99.90
20732;DHT22;10527;52.124;5.196;2023-09-12T13:33:50;22.90;99.90
20732;DHT22;10527;52.124;5.196;2023-09-12T13:36:16;22.90;99.90
20732;DHT22;10527;52.124;5.196;2023-09-12T13:38:43;22.90;99.90
20732;DHT22;10527;52.124;5.196;2023-09-12T13:41:12;23.30;99.90
20732;DHT22;10527;52.124;5.196;2023-09-12T13:43:39;23.70;99.90
20732;DHT22;10527;52.124;5.196;2023-09-12T13:46:07;24.10;99.90
20732;DHT22;10527;52.124;5.196;2023-09-12T13:48:37;24.40;99.90
20732;DHT22;10527;52.124;5.196;2023-09-12T13:51:04;24.50;99.90
20732;DHT22;10527;52.124;5.196;2023-09-12T13:53:33;24.60;99.90
20732;DHT22;10527;52.124;5.196;2023-09-12T13:56:00;24.70;99.90
20732;DHT22;10527;52.124;5.196;2023-09-12T13:58:28;24.60;99.90
20732;DHT22;10527;52.124;5.196;2023-09-12T14:01:13;24.40;99.90
20732;DHT22;10527;52.124;5.196;2023-09-12T14:03:53;24.50;99.90
20732;DHT22;10527;52.124;5.196;2023-09-12T14:06:21;24.50;99.90
20732;DHT22;10527;52.124;5.196;2023-09-12T14:08:49;24.60;99.90
20732;DHT22;10527;52.124;5.196;2023-09-12T14:11:16;24.50;99.90
20732;DHT22;10527;52.124;5.196;2023-09-12T14:13:58;24.60;99.90
20732;DHT22;10527;52.124;5.196;2023-09-12T14:16:40;24.30;99.90
20732;DHT22;10527;52.124;5.196;2023-09-12T14:19:09;24.40;99.90
20732;DHT22;10527;52.124;5.196;2023-09-12T14:21:37;24.50;99.90
20732;DHT22;10527;52.124;5.196;2023-09-12T14:24:05;24.70;99.90
20732;DHT22;10527;52.124;5.196;2023-09-12T14:26:33;24.80;99.90
20732;DHT22;10527;52.124;5.196;2023-09-12T14:29:00;25.00;99.90
20732;DHT22;10527;52.124;5.196;2023-09-12T14:31:28;25.30;99.90
20732;DHT22;10527;52.124;5.196;2023-09-12T14:33:55;25.30;99.90
20732;DHT22;10527;52.124;5.196;2023-09-12T14:36:24;25.30;99.90
20732;DHT22;10527;52.124;5.196;2023-09-12T14:38:51;25.00;99.90
20732;DHT22;10527;52.124;5.196;2023-09-12T14:41:18;24.90;99.90
20732;DHT22;10527;52.124;5.196;2023-09-12T14:43:45;24.80;99.90
20732;DHT22;10527;52.124;5.196;2023-09-12T14:46:12;24.70;99.90
20732;DHT22;10527;52.124;5.196;2023-09-12T14:48:40;24.70;99.90
20732;DHT22;10527;52.124;5.196;2023-09-12T14:51:21;24.50;99.90
20732;DHT22;10527;52.124;5.196;2023-09-12T14:53:58;24.60;99.90
20732;DHT22;10527;52.124;5.196;2023-09-12T14:56:24;24.80;99.90
20732;DHT22;10527;52.124;5.196;2023-09-12T14:58:51;24.80;99.90
20732;DHT22;10527;52.124;5.196;2023-09-12T15:01:18;24.80;99.90
20732;DHT22;10527;52.124;5.196;2023-09-12T15:03:45;24.80;99.90
20732;DHT22;10527;52.124;5.196;2023-09-12T15:06:17;24.90;99.90
20732;DHT22;10527;52.124;5.196;2023-09-12T15:08:55;24.80;99.90
20732;DHT22;10527;52.124;5.196;2023-09-12T15:11:31;25.00;99.90
20732;DHT22;10527;52.124;5.196;2023-09-12T15:13:59;25.00;99.90
20732;DHT22;10527;52.124;5.196;2023-09-12T15:16:27;24.70;99.90
20732;DHT22;10527;52.124;5.196;2023-09-12T15:19:00;24.60;99.90
20732;DHT22;10527;52.124;5.196;2023-09-12T15:21:31;24.50;99.90
20732;DHT22;10527;52.124;5.196;2023-09-12T15:24:01;24.30;99.90
20732;DHT22;10527;52.124;5.196;2023-09-12T15:26:28;24.20;99.90
20732;DHT22;10527;52.124;5.196;2023-09-12T15:28:56;24.10;99.90
20732;DHT22;10527;52.124;5.196;2023-09-12T15:31:23;24.20;99.90
20732;DHT22;10527;52.124;5.196;2023-09-12T15:33:50;24.20;99.90
20732;DHT22;10527;52.124;5.196;2023-09-12T15:36:17;24.20;99.90
20732;DHT22;10527;52.124;5.196;2023-09-12T15:38:44;24.40;99.90
20732;DHT22;10527;52.124;5.196;2023-09-12T15:41:14;24.20;99.90
20732;DHT22;10527;52.124;5.196;2023-09-12T15:43:43;24.30;99.90
20732;DHT22;10527;52.124;5.196;2023-09-12T15:46:14;24.10;99.90
20732;DHT22;10527;52.124;5.196;2023-09-12T15:49:03;24.00;99.90